Time;durP1;ratioP1;P1;durP2;ratioP2;P2;SDS_P1;SDS_P2;PMS_P1;PMS_P2;Temp;Humidity;BMP_temperature;BMP_pressure;BME280_temperature;BME280_humidity;BME280_pressure;Samples;Min_cycle;Max_cycle;Signal;HPM_P1;HPM_P2
2023/05/23 07:27:03;;;;;;;5.60;2.70;;;15.70;99.90;;;;;;3313085;27;20219;-79
2023/05/23 07:29:31;;;;;;;5.30;2.60;;;16.90;99.90;;;;;;4918771;29;20209;-78
2023/05/23 07:31:58;;;;;;;7.40;3.10;;;17.30;99.90;;;;;;4948737;28;20325;-76
2023/05/23 07:34:25;;;;;;;7.40;3.03;;;17.00;99.90;;;;;;4951773;29;20228;-80
2023/05/23 07:36:52;;;;;;;7.63;3.33;;;16.70;99.90;;;;;;4937977;29;20609;-75
2023/05/23 07:39:21;;;;;;;7.93;2.87;;;16.80;99.90;;;;;;4937476;29;20307;-75
2023/05/23 07:41:48;;;;;;;8.03;3.10;;;16.80;99.90;;;;;;4937057;29;20323;-76
2023/05/23 07:44:18;;;;;;;8.27;3.77;;;17.50;99.90;;;;;;4950007;29;20205;-77
2023/05/23 07:46:45;;;;;;;8.17;2.40;;;18.30;99.90;;;;;;4937457;29;20236;-76
2023/05/23 07:49:12;;;;;;;5.67;2.30;;;18.50;99.90;;;;;;4937606;29;20240;-79
2023/05/23 07:51:40;;;;;;;5.97;2.50;;;18.20;99.90;;;;;;4937267;29;20244;-77
2023/05/23 07:54:07;;;;;;;6.67;1.97;;;17.90;99.90;;;;;;4936630;29;20229;-79
2023/05/23 07:56:34;;;;;;;7.87;2.23;;;17.80;99.90;;;;;;4937439;29;20248;-77
2023/05/23 07:59:01;;;;;;;7.37;2.00;;;18.30;99.90;;;;;;4937247;29;20304;-73
2023/05/23 08:01:30;;;;;;;9.73;2.30;;;19.00;99.90;;;;;;4936840;29;20300;-75
2023/05/23 08:03:57;;;;;;;5.18;2.30;;;19.00;99.90;;;;;;4936934;29;20568;-76
2023/05/23 08:06:24;;;;;;;7.10;2.25;;;19.60;99.90;;;;;;4936692;29;20232;-75
2023/05/23 08:08:51;;;;;;;8.18;2.00;;;19.40;99.90;;;;;;4936869;29;20217;-76
2023/05/23 08:11:18;;;;;;;6.82;2.17;;;19.40;99.90;;;;;;4936638;29;20853;-74
2023/05/23 08:13:45;;;;;;;5.28;2.20;;;19.90;99.90;;;;;;4935992;29;20311;-77
2023/05/23 08:16:12;;;;;;;6.18;2.20;;;20.50;99.90;;;;;;4936338;29;20240;-74
2023/05/23 08:18:40;;;;;;;4.05;2.13;;;20.60;99.90;;;;;;4936533;29;20240;-74
2023/05/23 08:21:07;;;;;;;6.60;2.63;;;21.30;99.90;;;;;;4948775;29;20276;-75
2023/05/23 08:23:34;;;;;;;4.85;2.22;;;22.00;99.90;;;;;;4936592;29;20778;-74
2023/05/23 08:26:01;;;;;;;6.93;2.10;;;22.10;99.90;;;;;;4936567;29;20217;-78
2023/05/23 08:28:28;;;;;;;8.00;2.10;;;22.00;99.90;;;;;;4936874;29;20244;-77
2023/05/23 08:30:57;;;;;;;5.85;2.47;;;21.70;99.40;;;;;;4936450;29;20244;-75
2023/05/23 08:33:24;;;;;;;10.02;2.70;;;21.40;99.90;;;;;;4936937;29;20572;-74
2023/05/23 08:35:52;;;;;;;7.15;2.67;;;21.60;99.90;;;;;;4936240;29;20332;-75
2023/05/23 08:38:20;;;;;;;8.52;3.40;;;21.90;99.90;;;;;;4936408;29;20247;-77
2023/05/23 08:40:50;;;;;;;10.13;4.07;;;22.20;99.90;;;;;;4937225;29;20208;-75
2023/05/23 08:43:18;;;;;;;5.38;2.75;;;22.10;99.60;;;;;;4936053;29;20229;-76
2023/05/23 08:45:45;;;;;;;8.40;3.30;;;21.20;99.90;;;;;;4935827;29;20576;-74
2023/05/23 08:48:15;;;;;;;7.78;3.13;;;21.10;99.90;;;;;;4935655;29;20244;-76
2023/05/23 08:50:46;;;;;;;11.38;3.97;;;20.70;99.90;;;;;;4931765;29;20209;-78
2023/05/23 08:53:19;;;;;;;7.40;3.20;;;20.50;99.90;;;;;;4937251;29;20224;-80
2023/05/23 08:55:46;;;;;;;5.10;2.65;;;20.40;99.90;;;;;;4936309;29;20272;-81
2023/05/23 08:58:14;;;;;;;7.53;2.72;;;20.80;99.90;;;;;;4954076;29;20244;-81
2023/05/23 09:00:42;;;;;;;8.57;2.70;;;21.00;99.90;;;;;;4947757;29;20201;-78
2023/05/23 09:03:10;;;;;;;7.05;2.60;;;20.60;99.90;;;;;;4936069;29;20324;-78
2023/05/23 09:05:37;;;;;;;6.95;2.50;;;20.00;99.90;;;;;;4936057;29;20292;-82
2023/05/23 09:08:04;;;;;;;5.20;2.17;;;19.80;99.90;;;;;;4936292;29;20623;-76
2023/05/23 09:10:32;;;;;;;6.85;2.33;;;19.80;99.90;;;;;;4949470;29;20212;-80
2023/05/23 09:13:00;;;;;;;4.97;2.37;;;19.80;99.90;;;;;;4935856;29;20228;-80
2023/05/23 09:15:27;;;;;;;4.75;2.30;;;19.40;99.90;;;;;;4935794;29;20240;-80
2023/05/23 09:17:59;;;;;;;6.63;2.05;;;19.50;99.90;;;;;;4936024;29;20212;-80
2023/05/23 09:20:26;;;;;;;7.20;2.17;;;19.50;99.90;;;;;;4935857;29;20239;-78
2023/05/23 09:22:54;;;;;;;6.70;2.20;;;19.20;99.90;;;;;;4936175;29;20260;-80
2023/05/23 09:25:21;;;;;;;8.27;2.30;;;18.80;99.90;;;;;;4935627;29;20694;-80
2023/05/23 09:27:51;;;;;;;5.27;2.57;;;18.60;99.90;;;;;;4935277;29;20299;-80
2023/05/23 09:30:18;;;;;;;5.87;2.07;;;18.40;99.90;;;;;;4935449;29;20237;-80
2023/05/23 09:32:58;;;;;;;6.30;2.40;;;18.30;99.90;;;;;;4935637;29;20640;-80
2023/05/23 09:35:28;;;;;;;4.20;1.90;;;18.20;99.90;;;;;;4936015;29;20246;-79
2023/05/23 09:37:57;;;;;;;3.47;1.80;;;17.70;99.90;;;;;;4935930;29;20244;-78
2023/05/23 09:40:30;;;;;;;6.93;2.17;;;17.60;99.90;;;;;;4935510;29;20213;-78
2023/05/23 09:43:03;;;;;;;8.47;1.90;;;17.60;99.90;;;;;;4935556;29;20307;-78
2023/05/23 09:45:30;;;;;;;6.63;2.00;;;17.90;99.90;;;;;;4942477;29;20227;-77
2023/05/23 09:47:57;;;;;;;7.97;1.77;;;17.80;99.90;;;;;;4954410;29;20575;-77
2023/05/23 09:50:30;;;;;;;2.93;1.50;;;17.60;99.90;;;;;;4935285;29;20233;-76
2023/05/23 09:52:57;;;;;;;4.50;1.60;;;17.50;99.90;;;;;;4935433;29;20228;-75
2023/05/23 09:55:24;;;;;;;3.47;1.50;;;17.50;99.90;;;;;;4935751;29;20327;-76
2023/05/23 09:57:55;;;;;;;4.80;1.67;;;17.60;99.90;;;;;;4935417;29;20311;-75
2023/05/23 10:00:24;;;;;;;4.70;2.20;;;17.60;99.90;;;;;;4935336;29;20205;-74
2023/05/23 10:02:58;;;;;;;4.20;1.67;;;17.70;99.90;;;;;;4935116;29;20229;-76
2023/05/23 10:05:37;;;;;;;5.30;1.60;;;17.80;99.90;;;;;;4935777;29;20240;-77
2023/05/23 10:08:10;;;;;;;5.17;1.70;;;17.60;99.90;;;;;;4935374;29;20248;-76
2023/05/23 10:11:30;;;;;;;4.63;1.87;;;17.40;99.90;;;;;;4935063;29;20204;-78
2023/05/23 10:13:59;;;;;;;5.30;1.60;;;17.50;99.90;;;;;;4935393;29;20299;-76
2023/05/23 10:16:37;;;;;;;4.03;1.47;;;17.50;99.90;;;;;;4935257;29;20319;-72
2023/05/23 10:19:12;;;;;;;4.27;1.40;;;17.50;99.90;;;;;;4934137;29;20661;-72
2023/05/23 10:21:48;;;;;;;4.00;1.60;;;17.40;99.90;;;;;;4933298;29;20247;-73
2023/05/23 10:24:16;;;;;;;2.00;1.10;;;17.60;99.90;;;;;;4933470;29;20260;-72
2023/05/23 10:26:45;;;;;;;3.70;1.47;;;17.80;99.90;;;;;;4934158;29;20695;-72
2023/05/23 10:29:11;;;;;;;4.83;1.10;;;17.80;99.90;;;;;;4933750;29;20269;-73
2023/05/23 10:31:40;;;;;;;4.37;1.43;;;17.90;99.90;;;;;;4933851;29;20240;-72
2023/05/23 10:34:15;;;;;;;4.53;1.30;;;17.80;99.90;;;;;;4933862;29;20248;-76
2023/05/23 10:36:50;;;;;;;4.50;1.20;;;18.10;99.90;;;;;;4934345;29;20275;-74
2023/05/23 10:39:27;;;;;;;1.50;1.00;;;18.10;99.90;;;;;;4954256;28;20295;-76
2023/05/23 10:42:00;;;;;;;3.40;1.33;;;17.90;99.90;;;;;;4938952;29;20229;-73
2023/05/23 10:44:29;;;;;;;2.83;1.30;;;18.10;99.90;;;;;;4935906;29;20653;-74
2023/05/23 10:47:00;;;;;;;4.60;1.53;;;18.30;99.90;;;;;;4955377;29;20196;-76
2023/05/23 10:49:44;;;;;;;4.70;1.47;;;18.30;99.90;;;;;;4955971;29;20667;-75
2023/05/23 10:52:12;;;;;;;4.90;2.00;;;18.50;99.90;;;;;;4936201;29;20715;-75
2023/05/23 10:54:44;;;;;;;3.87;1.43;;;18.60;99.90;;;;;;4936530;29;20244;-75
2023/05/23 10:57:11;;;;;;;2.87;1.50;;;18.60;99.90;;;;;;4936558;29;20632;-76
2023/05/23 10:59:40;;;;;;;2.00;1.20;;;18.70;99.90;;;;;;4935901;29;20216;-76
2023/05/23 11:02:14;;;;;;;3.47;1.43;;;18.80;99.90;;;;;;4936217;29;20228;-77
2023/05/23 11:04:41;;;;;;;2.47;1.20;;;18.90;99.90;;;;;;4936329;29;20205;-77
2023/05/23 11:07:29;;;;;;;2.13;1.10;;;19.10;99.90;;;;;;4936181;29;20604;-77
2023/05/23 11:10:09;;;;;;;3.13;1.27;;;19.50;99.90;;;;;;4935880;29;20264;-77
2023/05/23 11:12:41;;;;;;;2.53;1.08;;;19.80;99.90;;;;;;4935480;29;20587;-77
2023/05/23 11:15:21;;;;;;;5.07;1.27;;;19.70;99.90;;;;;;4936192;29;20228;-77
2023/05/23 11:17:53;;;;;;;3.20;1.40;;;19.50;99.90;;;;;;4936330;29;20296;-77
2023/05/23 11:20:23;;;;;;;5.20;2.17;;;19.40;99.90;;;;;;4935501;29;20240;-74
2023/05/23 11:23:00;;;;;;;6.03;1.45;;;19.80;99.90;;;;;;4936262;29;20233;-74
2023/05/23 11:25:41;;;;;;;4.55;1.00;;;19.90;99.90;;;;;;4936471;29;20303;-75
2023/05/23 11:28:09;;;;;;;1.85;0.82;;;19.80;99.90;;;;;;4935881;29;20213;-74
2023/05/23 11:30:37;;;;;;;3.00;1.00;;;19.70;99.90;;;;;;4935804;29;20236;-75
2023/05/23 11:33:12;;;;;;;3.00;1.05;;;19.80;99.90;;;;;;4935639;29;20228;-74
2023/05/23 11:35:40;;;;;;;3.33;1.42;;;19.50;99.90;;;;;;4935320;29;20331;-74
2023/05/23 11:38:07;;;;;;;1.83;0.88;;;19.20;99.90;;;;;;4935855;29;20660;-73
2023/05/23 11:40:36;;;;;;;1.60;1.10;;;19.20;99.90;;;;;;4935584;29;20265;-76
2023/05/23 11:43:04;;;;;;;3.03;1.15;;;19.30;99.90;;;;;;4934975;29;20228;-76
2023/05/23 11:45:32;;;;;;;6.85;1.25;;;19.30;99.90;;;;;;4942754;29;20208;-75
2023/05/23 11:48:04;;;;;;;4.82;1.20;;;19.20;99.90;;;;;;4955087;28;20240;-74
2023/05/23 11:50:33;;;;;;;3.33;1.23;;;19.30;99.90;;;;;;4948584;28;20676;-75
2023/05/23 11:53:00;;;;;;;5.50;1.40;;;19.60;99.90;;;;;;4936201;29;20225;-73
2023/05/23 11:55:27;;;;;;;4.60;1.20;;;19.80;99.90;;;;;;4935479;29;20236;-72
2023/05/23 11:57:56;;;;;;;4.30;1.13;;;19.90;99.90;;;;;;4934932;29;20236;-74
2023/05/23 12:00:23;;;;;;;5.60;1.20;;;20.10;99.90;;;;;;4933482;29;20717;-74
2023/05/23 12:02:50;;;;;;;3.47;1.25;;;20.10;99.90;;;;;;4934919;29;20319;-73
2023/05/23 12:05:17;;;;;;;6.18;1.20;;;19.80;99.90;;;;;;4935313;29;20739;-73
2023/05/23 12:07:47;;;;;;;3.42;1.38;;;19.50;99.90;;;;;;4935342;29;20723;-74
2023/05/23 12:10:15;;;;;;;3.03;1.25;;;19.20;99.90;;;;;;4935132;29;20248;-73
2023/05/23 12:12:42;;;;;;;4.65;1.50;;;19.20;99.90;;;;;;4934568;29;20235;-74
2023/05/23 12:15:10;;;;;;;4.63;1.10;;;19.30;99.90;;;;;;4934664;29;20213;-73
2023/05/23 12:17:37;;;;;;;4.43;1.25;;;19.50;99.90;;;;;;4934609;29;20212;-75
2023/05/23 12:20:05;;;;;;;3.35;1.05;;;19.70;99.90;;;;;;4934209;29;20571;-74
2023/05/23 12:22:32;;;;;;;4.80;1.05;;;19.80;99.90;;;;;;4935193;29;20790;-75
2023/05/23 12:25:03;;;;;;;5.50;1.42;;;19.90;99.90;;;;;;4939395;29;20207;-75
2023/05/23 12:27:34;;;;;;;8.55;1.13;;;20.00;99.90;;;;;;4953562;28;20698;-77
2023/05/23 12:30:09;;;;;;;9.70;1.40;;;20.00;99.60;;;;;;4946034;29;20213;-73
2023/05/23 12:32:40;;;;;;;8.43;1.20;;;20.00;99.60;;;;;;4934885;29;20235;-75
2023/05/23 12:35:08;;;;;;;4.55;0.95;;;19.70;99.90;;;;;;4934097;29;20241;-76
2023/05/23 12:37:38;;;;;;;1.95;0.93;;;19.70;99.90;;;;;;4935399;29;20287;-74
2023/05/23 12:40:15;;;;;;;5.90;1.33;;;19.80;99.90;;;;;;4935151;29;20217;-74
2023/05/23 12:42:50;;;;;;;4.22;1.20;;;19.80;99.90;;;;;;4935096;29;20311;-77
2023/05/23 12:45:17;;;;;;;5.68;1.27;;;20.00;99.90;;;;;;4939537;29;20718;-76
2023/05/23 12:47:44;;;;;;;3.78;1.38;;;20.10;99.60;;;;;;4953936;28;20247;-75
2023/05/23 12:50:12;;;;;;;6.07;1.20;;;20.20;98.70;;;;;;4950153;29;20213;-73
2023/05/23 12:52:39;;;;;;;4.38;1.30;;;20.10;99.00;;;;;;4935126;29;20239;-74
2023/05/23 12:55:07;;;;;;;5.45;1.55;;;20.00;98.70;;;;;;4934851;29;20698;-74
2023/05/23 12:57:36;;;;;;;4.47;1.20;;;19.80;98.10;;;;;;4936730;29;20285;-75
2023/05/23 13:00:05;;;;;;;7.63;1.20;;;19.40;98.10;;;;;;4934473;29;20711;-74
2023/05/23 13:02:32;;;;;;;4.50;1.42;;;19.50;99.30;;;;;;4935183;29;20303;-74
2023/05/23 13:04:59;;;;;;;5.75;1.15;;;19.70;99.50;;;;;;4936227;29;20216;-74
2023/05/23 13:07:26;;;;;;;4.78;1.20;;;19.70;98.50;;;;;;4934970;29;20695;-74
2023/05/23 13:09:53;;;;;;;4.32;1.23;;;19.70;98.80;;;;;;4934650;29;20350;-74
2023/05/23 13:12:20;;;;;;;3.45;1.15;;;19.60;98.70;;;;;;4934258;29;20264;-75
2023/05/23 13:14:48;;;;;;;7.25;1.73;;;19.60;99.10;;;;;;4935025;29;20229;-75
2023/05/23 13:17:16;;;;;;;4.63;1.08;;;19.50;99.50;;;;;;4935386;29;20268;-74
2023/05/23 13:19:42;;;;;;;3.33;1.27;;;19.40;98.60;;;;;;4934655;29;20209;-74
2023/05/23 13:22:10;;;;;;;7.93;1.25;;;19.30;98.60;;;;;;4951644;23;20256;-75
2023/05/23 13:24:37;;;;;;;5.35;1.40;;;19.30;99.20;;;;;;4952969;28;20212;-74
2023/05/23 13:27:04;;;;;;;6.20;1.33;;;19.70;99.70;;;;;;4953338;28;20211;-73
2023/05/23 13:29:32;;;;;;;5.80;1.67;;;19.80;98.80;;;;;;4953662;28;20541;-75
2023/05/23 13:32:00;;;;;;;4.68;1.30;;;19.70;98.80;;;;;;4953030;28;20228;-75
2023/05/23 13:34:28;;;;;;;5.45;1.38;;;19.60;99.40;;;;;;4952916;28;20618;-74
2023/05/23 13:36:55;;;;;;;4.82;1.90;;;19.60;98.80;;;;;;4953154;28;20291;-75
2023/05/23 13:39:22;;;;;;;3.88;1.42;;;19.60;98.80;;;;;;4953205;28;20243;-75
2023/05/23 13:41:49;;;;;;;4.63;1.73;;;19.50;98.80;;;;;;4952440;28;20267;-75
2023/05/23 13:44:16;;;;;;;7.38;1.38;;;19.20;98.80;;;;;;4953189;28;20716;-77
2023/05/23 13:46:43;;;;;;;4.95;1.33;;;18.90;99.30;;;;;;4969745;28;20231;-76
2023/05/23 13:49:12;;;;;;;7.57;1.30;;;18.90;99.00;;;;;;4972362;28;20273;-75
2023/05/23 13:51:38;;;;;;;5.38;1.10;;;19.10;99.50;;;;;;4957325;28;20243;-78
2023/05/23 13:54:06;;;;;;;3.37;1.40;;;19.20;98.90;;;;;;4952400;28;20240;-75
2023/05/23 13:56:33;;;;;;;3.67;1.52;;;19.10;98.50;;;;;;4951727;28;20587;-75
2023/05/23 13:59:00;;;;;;;6.47;1.10;;;18.90;99.10;;;;;;4952502;28;20230;-75
2023/05/23 14:01:28;;;;;;;7.47;1.37;;;19.10;99.00;;;;;;4952480;28;20235;-74
2023/05/23 14:03:55;;;;;;;5.65;1.63;;;19.20;99.00;;;;;;4951945;28;20262;-74
2023/05/23 14:06:23;;;;;;;3.60;1.13;;;19.00;99.70;;;;;;4952877;28;20262;-74
2023/05/23 14:08:50;;;;;;;3.63;1.20;;;18.90;99.70;;;;;;4952636;28;20209;-76
2023/05/23 14:11:17;;;;;;;4.67;1.03;;;18.80;98.40;;;;;;4953081;28;20254;-78
2023/05/23 14:13:44;;;;;;;6.20;1.10;;;18.70;98.80;;;;;;4957254;28;20266;-74
2023/05/23 14:16:11;;;;;;;3.80;1.30;;;18.90;99.40;;;;;;4956696;28;20690;-76
2023/05/23 14:18:38;;;;;;;6.10;1.47;;;19.10;99.10;;;;;;4957311;29;20266;-75
2023/05/23 14:21:04;;;;;;;8.65;1.95;;;19.50;99.10;;;;;;4956997;28;20263;-74
2023/05/23 14:23:33;;;;;;;5.73;1.50;;;19.50;98.90;;;;;;4957617;29;20235;-74
2023/05/23 14:26:00;;;;;;;3.85;1.70;;;19.60;99.20;;;;;;4957651;28;20671;-76
2023/05/23 14:28:27;;;;;;;4.53;1.40;;;19.50;99.10;;;;;;4956894;28;20239;-76
2023/05/23 14:30:54;;;;;;;7.40;1.30;;;19.20;98.90;;;;;;4946507;28;20694;-74
2023/05/23 14:33:21;;;;;;;8.77;1.40;;;19.00;99.40;;;;;;4941231;28;20704;-76
2023/05/23 14:35:49;;;;;;;6.13;1.80;;;18.90;99.00;;;;;;4951683;28;20307;-76
2023/05/23 14:38:16;;;;;;;5.47;1.27;;;18.90;99.50;;;;;;4953024;28;20734;-77
2023/05/23 14:40:45;;;;;;;3.50;1.23;;;18.90;99.20;;;;;;4948674;28;20299;-74
2023/05/23 14:43:12;;;;;;;2.40;0.90;;;19.00;99.50;;;;;;4949855;28;20280;-75
2023/05/23 14:45:39;;;;;;;4.50;1.30;;;19.00;99.20;;;;;;4952429;28;20235;-79
2023/05/23 14:48:07;;;;;;;3.93;1.63;;;19.00;99.60;;;;;;4950771;28;20251;-77
2023/05/23 14:50:34;;;;;;;7.77;1.70;;;19.00;99.90;;;;;;4955713;28;20247;-77
2023/05/23 14:53:01;;;;;;;5.97;1.48;;;19.30;99.40;;;;;;4953308;28;20235;-79
2023/05/23 14:55:28;;;;;;;4.70;1.40;;;19.30;99.30;;;;;;4955413;28;20248;-79
2023/05/23 14:57:57;;;;;;;5.70;0.90;;;19.30;98.50;;;;;;4950995;28;20323;-78
2023/05/23 15:00:24;;;;;;;5.27;1.60;;;19.20;98.30;;;;;;4952807;28;20235;-78
2023/05/23 15:02:51;;;;;;;5.53;1.47;;;19.10;97.80;;;;;;4956373;28;20228;-75
2023/05/23 15:05:19;;;;;;;7.07;1.73;;;19.10;98.10;;;;;;4956671;28;20294;-77
2023/05/23 15:07:46;;;;;;;3.33;1.17;;;19.00;98.80;;;;;;4956152;28;20263;-76
2023/05/23 15:10:13;;;;;;;2.93;1.33;;;18.90;98.20;;;;;;4956467;29;20239;-75
2023/05/23 15:12:40;;;;;;;4.13;0.87;;;19.10;99.00;;;;;;4955141;28;20645;-76
2023/05/23 15:15:09;;;;;;;3.57;1.10;;;19.30;99.60;;;;;;4956529;28;20544;-77
2023/05/23 15:17:36;;;;;;;7.35;1.00;;;19.30;99.50;;;;;;4956414;28;20326;-72
2023/05/23 15:20:04;;;;;;;4.55;1.23;;;19.40;99.90;;;;;;4955377;28;20208;-73
2023/05/23 15:22:31;;;;;;;5.97;1.25;;;19.50;99.60;;;;;;4956103;28;20642;-74
2023/05/23 15:24:59;;;;;;;5.95;1.40;;;19.50;98.90;;;;;;4956968;28;20291;-77
2023/05/23 15:27:26;;;;;;;3.63;1.10;;;19.50;99.00;;;;;;4956532;28;20208;-74
2023/05/23 15:29:53;;;;;;;7.03;1.40;;;19.40;98.20;;;;;;4956439;28;20247;-74
2023/05/23 15:32:21;;;;;;;2.17;0.90;;;19.30;98.00;;;;;;4956605;29;20228;-73
2023/05/23 15:34:48;;;;;;;3.87;1.10;;;19.10;98.10;;;;;;4956772;28;20246;-74
2023/05/23 15:37:15;;;;;;;3.57;1.37;;;19.00;97.40;;;;;;4956596;28;20271;-74
2023/05/23 15:39:42;;;;;;;5.30;1.10;;;18.90;98.20;;;;;;4956644;29;20248;-74
2023/05/23 15:42:09;;;;;;;2.33;0.73;;;18.90;98.60;;;;;;4956583;28;20720;-74
2023/05/23 15:44:36;;;;;;;5.50;1.23;;;19.00;99.30;;;;;;4956447;28;20204;-74
2023/05/23 15:47:03;;;;;;;4.17;1.00;;;19.10;99.30;;;;;;4956244;28;20294;-74
2023/05/23 15:49:31;;;;;;;4.63;1.23;;;19.10;99.40;;;;;;4956554;28;20259;-74
2023/05/23 15:51:58;;;;;;;3.97;1.00;;;19.20;99.10;;;;;;4956178;29;20348;-74
2023/05/23 15:54:25;;;;;;;2.13;0.85;;;19.30;99.50;;;;;;4956512;28;20317;-74
2023/05/23 15:56:52;;;;;;;4.88;1.08;;;19.40;99.70;;;;;;4956114;28;20259;-75
2023/05/23 15:59:19;;;;;;;3.42;0.93;;;19.40;99.20;;;;;;4956178;28;20469;-74
2023/05/23 16:01:45;;;;;;;5.45;1.13;;;19.40;99.40;;;;;;4956143;28;20299;-74
2023/05/23 16:04:12;;;;;;;6.90;1.00;;;19.40;99.20;;;;;;4956132;28;20262;-74
2023/05/23 16:06:41;;;;;;;7.60;1.63;;;19.40;99.00;;;;;;4956112;28;20294;-75
2023/05/23 16:09:08;;;;;;;7.45;1.08;;;19.30;99.10;;;;;;4956227;29;20208;-75
2023/05/23 16:11:34;;;;;;;3.43;1.10;;;19.20;99.50;;;;;;4955858;28;20244;-75
2023/05/23 16:14:01;;;;;;;8.03;1.23;;;19.10;98.90;;;;;;4956090;29;20295;-75
2023/05/23 16:16:28;;;;;;;3.27;1.37;;;18.80;99.20;;;;;;4955891;28;20295;-75
2023/05/23 16:18:55;;;;;;;5.70;1.57;;;18.70;99.50;;;;;;4955878;28;20645;-75
2023/05/23 16:21:22;;;;;;;6.57;1.00;;;18.50;99.80;;;;;;4955965;29;20328;-75
2023/05/23 16:23:51;;;;;;;7.30;1.87;;;18.30;99.90;;;;;;4952071;28;20326;-74
2023/05/23 16:26:18;;;;;;;5.80;1.30;;;18.20;99.90;;;;;;4954269;28;20235;-74
2023/05/23 16:28:45;;;;;;;2.93;0.90;;;18.20;99.90;;;;;;4966758;28;20270;-73
2023/05/23 16:31:14;;;;;;;6.73;1.10;;;18.20;99.90;;;;;;4972751;28;20262;-73
2023/05/23 16:33:41;;;;;;;6.13;1.30;;;18.20;99.80;;;;;;4970585;28;20223;-74
2023/05/23 16:36:08;;;;;;;3.60;1.10;;;18.00;99.90;;;;;;4954161;28;20683;-73
2023/05/23 16:38:35;;;;;;;3.13;1.20;;;17.80;99.80;;;;;;4953238;28;20271;-73
2023/05/23 16:41:03;;;;;;;7.97;1.10;;;17.60;99.90;;;;;;4949014;28;20659;-75
2023/05/23 16:43:30;;;;;;;6.70;1.00;;;17.50;99.90;;;;;;4954417;28;20235;-74
2023/05/23 16:45:57;;;;;;;6.20;1.37;;;17.30;99.90;;;;;;4968614;28;20207;-73
2023/05/23 16:48:24;;;;;;;5.20;0.87;;;17.50;99.90;;;;;;4956944;28;20291;-73
2023/05/23 16:50:52;;;;;;;6.70;1.10;;;17.50;99.90;;;;;;4953965;28;20208;-76
2023/05/23 16:53:19;;;;;;;4.43;1.10;;;17.40;99.90;;;;;;4953316;28;20758;-73
2023/05/23 16:55:46;;;;;;;5.27;1.13;;;17.40;99.90;;;;;;4955000;28;20298;-74
2023/05/23 16:58:15;;;;;;;5.97;1.23;;;17.40;99.90;;;;;;4954835;28;20330;-75
2023/05/23 17:00:42;;;;;;;8.17;1.10;;;17.30;99.90;;;;;;4950394;28;20303;-73
2023/05/23 17:03:09;;;;;;;7.83;1.23;;;17.40;99.90;;;;;;4945115;28;20292;-73
2023/05/23 17:05:37;;;;;;;7.30;1.47;;;17.30;99.90;;;;;;4938589;28;20220;-73
2023/05/23 17:08:05;;;;;;;6.03;0.90;;;17.30;99.90;;;;;;4954388;28;20239;-74
2023/05/23 17:10:31;;;;;;;6.20;1.77;;;17.20;99.90;;;;;;4946979;28;20213;-73
2023/05/23 17:12:58;;;;;;;8.17;1.07;;;17.00;99.90;;;;;;4943660;28;20315;-73
2023/05/23 17:15:27;;;;;;;3.73;1.47;;;17.00;99.90;;;;;;4945005;28;20307;-74
2023/05/23 17:17:53;;;;;;;4.13;1.10;;;16.90;99.90;;;;;;4946104;28;20236;-73
2023/05/23 17:20:22;;;;;;;3.13;0.80;;;16.90;99.90;;;;;;4948637;28;20212;-74
2023/05/23 17:22:49;;;;;;;6.93;1.43;;;16.70;99.90;;;;;;4951990;28;20684;-73
2023/05/23 17:25:16;;;;;;;5.10;1.13;;;16.90;99.90;;;;;;4946228;28;20307;-74
2023/05/23 17:27:43;;;;;;;6.33;1.00;;;16.90;99.90;;;;;;4950736;28;20290;-73
2023/05/23 17:30:13;;;;;;;6.13;1.70;;;17.00;99.90;;;;;;4946145;28;21692;-74
2023/05/23 17:32:42;;;;;;;3.73;0.97;;;17.00;99.90;;;;;;4954444;28;20315;-74
2023/05/23 17:35:09;;;;;;;5.60;1.23;;;16.90;99.90;;;;;;4953795;28;20208;-74
2023/05/23 17:37:36;;;;;;;5.23;1.30;;;16.70;99.90;;;;;;4954163;28;20290;-75
2023/05/23 17:40:05;;;;;;;3.93;1.13;;;16.60;99.90;;;;;;4954488;28;20290;-74
2023/05/23 17:42:33;;;;;;;4.07;1.20;;;16.50;99.90;;;;;;4953816;28;20232;-74
2023/05/23 17:45:00;;;;;;;4.67;1.00;;;16.40;99.90;;;;;;4954718;28;20214;-74
2023/05/23 17:47:29;;;;;;;3.90;0.80;;;16.50;99.90;;;;;;4957534;28;20223;-74
2023/05/23 17:49:57;;;;;;;2.43;1.07;;;16.40;99.90;;;;;;4958584;28;20282;-74
2023/05/23 17:52:24;;;;;;;2.47;0.73;;;16.50;99.90;;;;;;4958594;29;20230;-74
2023/05/23 17:54:51;;;;;;;4.43;1.40;;;16.40;99.90;;;;;;4958669;28;20243;-74
2023/05/23 17:57:18;;;;;;;6.53;0.90;;;16.40;99.90;;;;;;4958406;29;20270;-75
2023/05/23 17:59:45;;;;;;;4.70;0.90;;;16.50;99.90;;;;;;4958574;28;20211;-74
2023/05/23 18:02:12;;;;;;;4.27;1.00;;;16.40;99.90;;;;;;4957961;28;20266;-74
2023/05/23 18:04:39;;;;;;;4.60;0.93;;;16.50;99.90;;;;;;4958080;28;20628;-76
2023/05/23 18:07:11;;;;;;;7.33;1.07;;;16.50;99.90;;;;;;4958190;28;20686;-77
2023/05/23 18:09:38;;;;;;;2.40;0.70;;;16.70;99.90;;;;;;4958315;28;20643;-76
2023/05/23 18:12:05;;;;;;;4.77;0.97;;;16.70;99.90;;;;;;4958086;28;20281;-76
2023/05/23 18:14:32;;;;;;;5.63;1.17;;;16.60;99.90;;;;;;4958222;28;20236;-76
2023/05/23 18:16:59;;;;;;;10.10;1.30;;;16.50;99.90;;;;;;4957993;28;20247;-76
2023/05/23 18:19:26;;;;;;;5.03;0.87;;;16.50;99.90;;;;;;4958406;28;20303;-76
2023/05/23 18:21:53;;;;;;;5.43;1.10;;;16.40;99.90;;;;;;4958213;29;20228;-75
2023/05/23 18:24:21;;;;;;;5.40;1.10;;;16.30;99.90;;;;;;4958184;28;20243;-76
2023/05/23 18:26:48;;;;;;;6.67;1.10;;;16.20;99.90;;;;;;4957855;28;20208;-75
2023/05/23 18:29:15;;;;;;;7.07;1.47;;;16.30;99.90;;;;;;4957627;28;20212;-76
2023/05/23 18:31:42;;;;;;;4.33;0.90;;;16.20;99.90;;;;;;4957768;28;20563;-75
2023/05/23 18:34:09;;;;;;;2.90;0.70;;;16.10;99.90;;;;;;4957955;28;20235;-75
2023/05/23 18:36:36;;;;;;;1.73;0.70;;;16.10;99.90;;;;;;4958270;29;20240;-76
2023/05/23 18:39:04;;;;;;;4.60;1.17;;;16.10;99.90;;;;;;4957886;28;20236;-75
2023/05/23 18:41:32;;;;;;;2.63;0.83;;;16.00;99.90;;;;;;4957619;28;20212;-76
2023/05/23 18:43:59;;;;;;;3.63;0.77;;;15.70;99.90;;;;;;4958003;29;20734;-75
2023/05/23 18:46:26;;;;;;;3.73;0.77;;;15.70;99.90;;;;;;4957773;28;20729;-76
2023/05/23 18:48:53;;;;;;;4.87;0.93;;;15.50;99.90;;;;;;4958038;28;20452;-76
2023/05/23 18:51:20;;;;;;;3.27;1.10;;;15.40;99.90;;;;;;4957704;28;20234;-76
2023/05/23 18:53:47;;;;;;;4.63;0.80;;;15.40;99.90;;;;;;4957127;28;20717;-76
2023/05/23 18:56:14;;;;;;;4.40;0.90;;;15.30;99.90;;;;;;4956802;28;20291;-76
2023/05/23 18:58:42;;;;;;;3.30;1.17;;;15.30;99.90;;;;;;4956915;29;20236;-75
2023/05/23 19:01:09;;;;;;;3.73;0.90;;;15.20;99.90;;;;;;4957628;28;20236;-75
2023/05/23 19:03:36;;;;;;;2.30;0.60;;;15.10;99.90;;;;;;4957340;28;20266;-74
2023/05/23 19:06:03;;;;;;;5.03;1.03;;;15.00;99.90;;;;;;4957181;28;20208;-75
2023/05/23 19:08:30;;;;;;;3.13;0.70;;;14.90;99.90;;;;;;4957194;28;20260;-75
2023/05/23 19:10:58;;;;;;;8.43;1.00;;;14.90;99.90;;;;;;4956986;28;20299;-75
2023/05/23 19:13:25;;;;;;;4.83;0.97;;;14.80;99.90;;;;;;4956855;29;20255;-75
2023/05/23 19:15:53;;;;;;;4.07;1.00;;;14.80;99.90;;;;;;4957143;28;20246;-75
2023/05/23 19:18:20;;;;;;;3.13;1.00;;;14.70;99.90;;;;;;4956937;28;20314;-76
2023/05/23 19:20:50;;;;;;;4.90;1.13;;;14.80;99.90;;;;;;4957094;28;20216;-75
2023/05/23 19:23:17;;;;;;;8.87;1.00;;;14.80;99.90;;;;;;4969458;23;20239;-75
2023/05/23 19:25:44;;;;;;;3.33;0.90;;;14.80;99.90;;;;;;4956905;29;20258;-75
2023/05/23 19:28:11;;;;;;;5.30;1.43;;;14.80;99.90;;;;;;4957003;28;20652;-75
2023/05/23 19:30:39;;;;;;;4.07;0.90;;;14.70;99.90;;;;;;4957363;28;20262;-76
2023/05/23 19:33:07;;;;;;;8.47;1.53;;;14.60;99.90;;;;;;4958433;28;20232;-74
2023/05/23 19:35:34;;;;;;;4.80;0.87;;;14.40;99.90;;;;;;4939671;29;20263;-74
2023/05/23 19:38:01;;;;;;;6.57;1.00;;;14.40;99.90;;;;;;4956724;28;20322;-75
2023/05/23 19:40:28;;;;;;;2.80;0.83;;;14.40;99.90;;;;;;4956759;28;20283;-75
2023/05/23 19:42:55;;;;;;;4.43;1.07;;;14.40;99.90;;;;;;4956874;28;20267;-76
2023/05/23 19:45:22;;;;;;;1.90;0.60;;;14.30;99.90;;;;;;4956657;29;20239;-75
2023/05/23 19:47:49;;;;;;;6.43;1.00;;;14.30;99.90;;;;;;4956664;28;20572;-76
2023/05/23 19:50:17;;;;;;;2.60;0.80;;;14.30;99.90;;;;;;4956485;28;20683;-75
2023/05/23 19:52:44;;;;;;;3.83;1.60;;;14.30;99.90;;;;;;4956373;28;20239;-77
2023/05/23 19:55:11;;;;;;;5.00;1.00;;;14.30;99.90;;;;;;4956353;28;20243;-75
2023/05/23 19:57:38;;;;;;;4.20;1.10;;;14.10;99.90;;;;;;4956268;29;20295;-75
2023/05/23 20:00:08;;;;;;;4.80;1.13;;;13.90;99.90;;;;;;4956672;28;20246;-76
2023/05/23 20:02:35;;;;;;;4.77;1.00;;;14.00;99.90;;;;;;4956163;28;20687;-76
2023/05/23 20:05:02;;;;;;;4.00;0.70;;;14.00;99.90;;;;;;4956349;28;20323;-75
2023/05/23 20:07:30;;;;;;;2.03;0.90;;;14.00;99.90;;;;;;4956060;28;20239;-75
2023/05/23 20:09:57;;;;;;;3.27;0.93;;;13.90;99.90;;;;;;4955919;28;20667;-75
2023/05/23 20:12:24;;;;;;;3.20;0.80;;;13.80;99.90;;;;;;4955967;29;20331;-76
2023/05/23 20:14:51;;;;;;;4.23;0.80;;;13.70;99.90;;;;;;4956011;28;20208;-75
2023/05/23 20:17:17;;;;;;;5.00;1.37;;;13.60;99.90;;;;;;4955959;28;20208;-75